Time;durP1;ratioP1;P1;durP2;ratioP2;P2;SDS_P1;SDS_P2;PMS_P1;PMS_P2;Temp;Humidity;BMP_temperature;BMP_pressure;BME280_temperature;BME280_humidity;BME280_pressure;Samples;Min_cycle;Max_cycle;Signal;HPM_P1;HPM_P2
2021/07/08 00:01:47;;;;;;;8.10;6.68;;;;;;;19.92;100.00;95868.28;5032762;28;20202;-84
2021/07/08 00:04:14;;;;;;;7.20;6.53;;;;;;;19.91;100.00;95869.28;5033116;28;20198;-84
2021/07/08 00:06:41;;;;;;;6.93;6.28;;;;;;;19.93;100.00;95872.47;5032996;28;20198;-84
2021/07/08 00:09:09;;;;;;;7.18;6.47;;;;;;;19.84;100.00;95865.97;5032490;28;20594;-83
2021/07/08 00:11:36;;;;;;;6.88;6.28;;;;;;;19.89;100.00;95862.69;5032929;28;20197;-84
2021/07/08 00:14:05;;;;;;;6.60;5.85;;;;;;;19.90;100.00;95859.84;5032787;28;20220;-85
2021/07/08 00:16:32;;;;;;;6.60;6.03;;;;;;;19.88;100.00;95846.22;5032543;28;20248;-85
2021/07/08 00:18:59;;;;;;;6.85;6.25;;;;;;;19.85;100.00;95849.28;5032611;28;20206;-84
2021/07/08 00:21:26;;;;;;;6.75;6.00;;;;;;;19.82;100.00;95841.13;5032894;28;20792;-84
2021/07/08 00:23:53;;;;;;;6.47;5.97;;;;;;;19.80;100.00;95840.56;5033152;28;20212;-84
2021/07/08 00:26:20;;;;;;;7.43;5.70;;;;;;;19.84;100.00;95842.47;5032959;28;20582;-85
2021/07/08 00:28:46;;;;;;;5.88;5.38;;;;;;;19.86;100.00;95844.84;5032646;28;20209;-84
2021/07/08 00:31:15;;;;;;;5.85;5.35;;;;;;;19.85;100.00;95848.47;5032654;28;20230;-84
2021/07/08 00:33:42;;;;;;;5.72;5.22;;;;;;;19.88;100.00;95834.97;5032059;28;20206;-83
2021/07/08 00:36:08;;;;;;;5.40;4.90;;;;;;;19.90;100.00;95832.94;5032154;28;20236;-86
2021/07/08 00:38:35;;;;;;;5.50;5.03;;;;;;;19.83;100.00;95827.00;5032396;28;20213;-84
2021/07/08 00:41:01;;;;;;;5.63;5.07;;;;;;;19.76;100.00;95831.56;5031880;28;20233;-85
2021/07/08 00:43:30;;;;;;;4.90;4.50;;;;;;;19.73;100.00;95832.81;5032692;28;20240;-85
2021/07/08 00:45:57;;;;;;;5.35;4.85;;;;;;;19.73;100.00;95837.25;5033281;28;20212;-84
2021/07/08 00:48:26;;;;;;;5.63;4.88;;;;;;;19.83;100.00;95837.47;5032683;28;20202;-84
2021/07/08 00:50:53;;;;;;;5.18;4.38;;;;;;;19.81;100.00;95842.16;5032433;28;20225;-83
2021/07/08 00:53:21;;;;;;;4.65;4.20;;;;;;;19.80;100.00;95851.00;5032543;28;20448;-86
2021/07/08 00:55:52;;;;;;;5.20;4.60;;;;;;;19.82;100.00;95852.34;5032208;28;20296;-85
2021/07/08 00:58:19;;;;;;;4.45;4.05;;;;;;;19.87;100.00;95854.28;5033055;28;20209;-86
2021/07/08 01:00:46;;;;;;;4.60;4.20;;;;;;;19.91;100.00;95852.81;5034135;28;20253;-85
2021/07/08 01:03:13;;;;;;;4.90;4.40;;;;;;;19.83;100.00;95859.16;5035499;28;20202;-84
2021/07/08 01:05:44;;;;;;;4.60;4.20;;;;;;;19.82;100.00;95854.97;5036570;28;20221;-84
2021/07/08 01:08:12;;;;;;;7.10;4.85;;;;;;;19.77;100.00;95864.53;5035615;28;20225;-84
2021/07/08 01:10:39;;;;;;;4.47;4.07;;;;;;;19.86;100.00;95863.16;5035649;28;20218;-83
2021/07/08 01:13:06;;;;;;;5.22;4.00;;;;;;;19.87;100.00;95857.69;5035955;28;20208;-84
2021/07/08 01:15:33;;;;;;;5.10;4.18;;;;;;;19.91;100.00;95858.03;5035946;28;20206;-84
2021/07/08 01:18:00;;;;;;;4.28;3.95;;;;;;;19.96;100.00;95853.72;5035317;28;20226;-84
2021/07/08 01:20:30;;;;;;;4.15;3.70;;;;;;;19.92;100.00;95851.78;5035798;28;20218;-84
2021/07/08 01:23:02;;;;;;;5.13;4.57;;;;;;;19.92;100.00;95843.94;5035811;28;20233;-86
2021/07/08 01:25:31;;;;;;;4.30;3.90;;;;;;;19.83;100.00;95834.84;5035654;28;20198;-86
2021/07/08 01:27:59;;;;;;;4.28;3.80;;;;;;;19.90;100.00;95833.72;5035971;28;20198;-84
2021/07/08 01:30:27;;;;;;;3.75;3.40;;;;;;;19.91;100.00;95831.91;5035489;28;20229;-85
2021/07/08 01:32:54;;;;;;;5.28;3.90;;;;;;;19.94;100.00;95828.84;5035848;28;20209;-85
2021/07/08 01:35:21;;;;;;;7.85;3.88;;;;;;;19.85;100.00;95823.16;5036244;28;20201;-86
2021/07/08 01:37:47;;;;;;;4.93;3.78;;;;;;;19.77;100.00;95823.50;5035290;28;20240;-84
2021/07/08 01:40:18;;;;;;;4.28;3.88;;;;;;;19.84;100.00;95823.38;5036107;28;20892;-84
2021/07/08 01:42:45;;;;;;;4.38;3.78;;;;;;;19.80;100.00;95811.81;5035434;28;20238;-85
2021/07/08 01:45:14;;;;;;;5.30;4.15;;;;;;;19.78;100.00;95803.41;5035635;28;20209;-83
2021/07/08 01:47:42;;;;;;;4.20;3.80;;;;;;;19.77;100.00;95793.97;5035627;28;20198;-84
2021/07/08 01:50:12;;;;;;;4.40;4.00;;;;;;;19.72;100.00;95794.66;5036702;28;20252;-85
2021/07/08 01:52:39;;;;;;;4.60;4.22;;;;;;;19.77;100.00;95799.19;5035672;28;20197;-84
2021/07/08 01:55:05;;;;;;;4.72;3.92;;;;;;;19.77;100.00;95802.59;5036280;28;20211;-84
2021/07/08 01:57:33;;;;;;;4.40;4.00;;;;;;;19.61;100.00;95787.63;5034582;28;20236;-85
2021/07/08 02:00:00;;;;;;;4.38;4.07;;;;;;;19.63;100.00;95781.13;5035571;28;20224;-85
2021/07/08 02:02:26;;;;;;;4.35;3.95;;;;;;;19.64;100.00;95771.47;5034655;28;20210;-84
2021/07/08 02:04:53;;;;;;;6.20;4.20;;;;;;;19.64;100.00;95769.66;5036414;28;20246;-84
2021/07/08 02:07:19;;;;;;;4.55;4.25;;;;;;;19.64;100.00;95777.50;5036847;28;20205;-85
2021/07/08 02:09:46;;;;;;;4.40;4.10;;;;;;;19.74;100.00;95783.97;5035732;28;20229;-84
2021/07/08 02:12:12;;;;;;;3.95;3.45;;;;;;;19.81;100.00;95787.28;5034972;28;20208;-84
2021/07/08 02:14:40;;;;;;;4.22;3.83;;;;;;;19.81;100.00;95784.66;5034790;28;20240;-84
2021/07/08 02:17:07;;;;;;;3.78;3.47;;;;;;;19.86;99.70;95788.16;5034513;28;20225;-86
2021/07/08 02:19:33;;;;;;;4.47;4.07;;;;;;;19.81;99.72;95787.28;5034665;28;20252;-84
2021/07/08 02:22:00;;;;;;;6.72;3.75;;;;;;;19.86;99.48;95782.13;5034165;28;20585;-86
2021/07/08 02:24:26;;;;;;;3.65;3.35;;;;;;;19.86;99.65;95779.53;5035630;28;20494;-84
2021/07/08 02:26:53;;;;;;;4.07;3.67;;;;;;;19.91;99.42;95777.03;5035252;28;20210;-83
2021/07/08 02:29:22;;;;;;;4.32;3.60;;;;;;;19.87;98.74;95781.09;5034633;28;20214;-85
2021/07/08 02:31:50;;;;;;;4.28;3.88;;;;;;;19.83;100.00;95780.75;5034049;28;20210;-84
2021/07/08 02:34:16;;;;;;;4.35;3.55;;;;;;;19.86;100.00;95776.91;5035031;28;20202;-86
2021/07/08 02:36:43;;;;;;;5.15;3.80;;;;;;;19.81;99.71;95780.22;5034363;28;20224;-84
2021/07/08 02:39:09;;;;;;;3.40;3.10;;;;;;;19.90;99.17;95776.22;5034655;28;20213;-84
2021/07/08 02:41:36;;;;;;;3.05;2.85;;;;;;;19.95;98.75;95778.94;5034799;28;20674;-84
2021/07/08 02:44:03;;;;;;;4.20;3.00;;;;;;;20.05;98.49;95778.34;5034567;28;20698;-84
2021/07/08 02:46:29;;;;;;;4.30;2.83;;;;;;;20.11;98.38;95787.09;5034684;28;20214;-85
2021/07/08 02:48:57;;;;;;;3.28;2.97;;;;;;;20.16;97.67;95795.06;5034660;28;20202;-84
2021/07/08 02:51:24;;;;;;;3.60;3.30;;;;;;;20.16;97.22;95797.66;5035227;28;20368;-84
2021/07/08 02:53:50;;;;;;;3.40;3.20;;;;;;;20.18;97.32;95801.66;5035302;28;20209;-84
2021/07/08 02:56:17;;;;;;;3.65;3.30;;;;;;;20.12;97.23;95797.31;5035152;28;20233;-86
2021/07/08 02:58:44;;;;;;;3.50;3.30;;;;;;;20.14;97.18;95802.31;5034705;28;20232;-85
2021/07/08 03:01:10;;;;;;;3.90;3.00;;;;;;;20.12;97.83;95809.59;5034427;28;20233;-86
2021/07/08 03:03:37;;;;;;;6.22;2.95;;;;;;;20.11;97.68;95803.56;5034694;28;20433;-83
2021/07/08 03:06:05;;;;;;;3.17;2.97;;;;;;;20.11;97.79;95800.97;5035202;28;20202;-83
2021/07/08 03:08:31;;;;;;;9.88;4.25;;;;;;;20.11;97.71;95802.78;5034616;28;20208;-85
2021/07/08 03:10:58;;;;;;;3.60;3.30;;;;;;;20.09;98.59;95808.25;5033701;28;20218;-84
2021/07/08 03:13:25;;;;;;;3.75;3.33;;;;;;;20.06;98.71;95800.84;5034189;28;20202;-84
2021/07/08 03:15:51;;;;;;;5.45;2.75;;;;;;;20.10;98.44;95799.38;5034193;28;20213;-84
2021/07/08 03:18:18;;;;;;;3.58;3.28;;;;;;;20.12;98.13;95796.53;5034343;28;20547;-85
2021/07/08 03:20:45;;;;;;;3.22;3.00;;;;;;;20.02;98.51;95800.50;5033618;28;20222;-84
2021/07/08 03:23:13;;;;;;;4.05;3.10;;;;;;;19.93;99.60;95801.91;5033256;28;20285;-86
2021/07/08 03:25:40;;;;;;;2.90;2.70;;;;;;;19.94;99.60;95803.50;5034030;28;20206;-85
2021/07/08 03:28:06;;;;;;;3.15;2.85;;;;;;;20.00;99.23;95805.19;5033937;28;20265;-84
2021/07/08 03:30:33;;;;;;;3.13;2.92;;;;;;;20.01;99.51;95798.16;5033415;28;20250;-84
2021/07/08 03:33:02;;;;;;;3.13;2.92;;;;;;;20.04;99.16;95795.06;5032983;28;20206;-85
2021/07/08 03:35:30;;;;;;;2.90;2.70;;;;;;;20.06;99.50;95803.47;5033136;28;20198;-85
2021/07/08 03:37:56;;;;;;;3.15;2.92;;;;;;;20.10;98.81;95799.38;5033565;28;20660;-86
2021/07/08 03:40:25;;;;;;;3.70;3.42;;;;;;;20.13;98.10;95805.97;5032523;28;20222;-86
2021/07/08 03:42:52;;;;;;;3.03;2.75;;;;;;;20.08;98.98;95803.25;5032739;28;20202;-85
2021/07/08 03:45:20;;;;;;;3.03;2.80;;;;;;;20.14;98.51;95818.00;5032817;28;20665;-85
2021/07/08 03:47:47;;;;;;;4.60;3.25;;;;;;;20.14;98.08;95829.25;5032146;28;20198;-83
2021/07/08 03:50:14;;;;;;;3.63;3.15;;;;;;;20.14;98.19;95829.25;5033220;28;20226;-83
2021/07/08 03:52:42;;;;;;;3.78;3.22;;;;;;;20.10;98.31;95828.13;5032950;28;20568;-83
2021/07/08 03:55:11;;;;;;;4.40;3.40;;;;;;;20.06;98.73;95829.59;5033829;28;20205;-82
2021/07/08 03:57:52;;;;;;;4.05;3.60;;;;;;;19.94;100.00;95824.41;5032002;28;20226;-83
2021/07/08 04:00:19;;;;;;;5.07;3.17;;;;;;;19.93;100.00;95830.66;5033934;28;20697;-84
2021/07/08 04:02:46;;;;;;;4.10;3.20;;;;;;;19.97;100.00;95829.19;5032504;28;20662;-83
2021/07/08 04:05:13;;;;;;;3.00;2.80;;;;;;;20.02;99.76;95824.03;5033016;28;20205;-83
2021/07/08 04:07:40;;;;;;;4.07;3.20;;;;;;;20.01;99.85;95832.13;5032479;28;20209;-84
2021/07/08 04:10:07;;;;;;;4.60;3.05;;;;;;;20.09;98.74;95826.53;5032292;28;20297;-83
2021/07/08 04:12:33;;;;;;;3.15;2.95;;;;;;;20.06;98.77;95832.22;5031903;28;20212;-83
2021/07/08 04:15:01;;;;;;;3.55;3.25;;;;;;;20.06;98.42;95841.88;5032208;28;20206;-83
2021/07/08 04:17:27;;;;;;;4.85;3.20;;;;;;;20.09;98.16;95850.06;5032032;28;20745;-84
2021/07/08 04:19:54;;;;;;;4.70;2.97;;;;;;;20.11;98.08;95836.78;5032914;28;20232;-82
2021/07/08 04:22:20;;;;;;;3.42;3.05;;;;;;;20.04;98.88;95841.31;5032078;28;20688;-85
2021/07/08 04:24:47;;;;;;;4.07;3.15;;;;;;;19.99;99.58;95845.44;5032288;28;20214;-84
2021/07/08 04:27:14;;;;;;;3.38;3.08;;;;;;;20.01;99.48;95853.81;5032314;28;20209;-84
2021/07/08 04:29:40;;;;;;;5.00;3.60;;;;;;;19.93;100.00;95846.34;5032315;28;20229;-83
2021/07/08 04:32:08;;;;;;;3.53;3.20;;;;;;;19.92;100.00;95852.59;5031815;28;20221;-82
2021/07/08 04:34:35;;;;;;;3.67;3.38;;;;;;;19.98;100.00;95854.31;5032388;28;20208;-83
2021/07/08 04:37:03;;;;;;;6.45;3.15;;;;;;;19.99;99.92;95845.44;5033847;28;20212;-83
2021/07/08 04:39:29;;;;;;;6.90;3.35;;;;;;;19.94;99.78;95845.31;5035059;28;20221;-83
2021/07/08 04:41:56;;;;;;;3.78;3.45;;;;;;;20.00;99.31;95848.84;5035633;28;20206;-82
2021/07/08 04:44:22;;;;;;;3.17;2.97;;;;;;;20.06;98.50;95852.34;5034724;28;20273;-82
2021/07/08 04:46:49;;;;;;;4.15;3.08;;;;;;;19.96;99.52;95851.13;5034694;28;20802;-85
2021/07/08 04:49:17;;;;;;;5.90;3.55;;;;;;;19.89;100.00;95837.34;5037244;28;20202;-84
2021/07/08 04:51:43;;;;;;;8.13;3.28;;;;;;;19.86;100.00;95835.19;5039050;28;20202;-84
2021/07/08 04:54:10;;;;;;;3.78;3.20;;;;;;;19.82;100.00;95834.06;5023180;28;20202;-85
2021/07/08 04:56:36;;;;;;;3.38;3.17;;;;;;;19.87;100.00;95831.56;5019401;28;20222;-85
2021/07/08 04:59:03;;;;;;;4.32;3.55;;;;;;;19.83;100.00;95827.00;5019918;28;20270;-82
2021/07/08 05:01:29;;;;;;;3.53;3.30;;;;;;;19.87;100.00;95839.41;5024107;28;20194;-84
2021/07/08 05:03:59;;;;;;;8.10;3.92;;;;;;;19.85;100.00;95836.22;5037983;28;20232;-83
2021/07/08 05:06:27;;;;;;;4.65;4.25;;;;;;;19.78;100.00;95834.75;5041921;28;20198;-82
2021/07/08 05:08:54;;;;;;;4.75;4.35;;;;;;;19.75;100.00;95835.22;5040435;28;20201;-85
2021/07/08 05:11:20;;;;;;;5.25;4.05;;;;;;;19.79;100.00;95841.56;5041176;28;20222;-84
2021/07/08 05:13:47;;;;;;;7.35;4.93;;;;;;;19.84;100.00;95839.06;5041026;28;20603;-84
2021/07/08 05:16:13;;;;;;;5.55;5.07;;;;;;;19.92;100.00;95839.53;5040502;28;20202;-82
2021/07/08 05:18:40;;;;;;;5.85;5.35;;;;;;;19.99;100.00;95839.41;5037332;28;20222;-84
2021/07/08 05:21:06;;;;;;;6.20;5.60;;;;;;;19.93;100.00;95835.09;5033516;28;20225;-85
2021/07/08 05:23:35;;;;;;;9.10;6.53;;;;;;;19.82;100.00;95839.28;5037387;28;20202;-82
2021/07/08 05:26:02;;;;;;;7.50;6.80;;;;;;;19.89;100.00;95842.59;5036192;28;20202;-84
2021/07/08 05:28:28;;;;;;;7.97;6.57;;;;;;;19.90;100.00;95833.72;5036950;28;20661;-83
2021/07/08 05:30:55;;;;;;;9.82;8.80;;;;;;;19.81;100.00;95836.91;5037612;28;20231;-84
2021/07/08 05:33:23;;;;;;;8.98;8.27;;;;;;;19.78;100.00;95834.75;5038990;28;20209;-83
2021/07/08 05:35:49;;;;;;;9.70;8.95;;;;;;;19.81;100.00;95834.31;5040800;28;20210;-83
2021/07/08 05:38:16;;;;;;;9.55;8.65;;;;;;;19.83;100.00;95845.31;5038437;28;20228;-82
2021/07/08 05:40:44;;;;;;;9.70;8.80;;;;;;;19.89;100.00;95849.63;5039809;28;20224;-84
2021/07/08 05:43:10;;;;;;;9.38;8.57;;;;;;;19.90;100.00;95843.38;5039695;28;20205;-84
2021/07/08 05:45:37;;;;;;;9.32;8.52;;;;;;;20.00;100.00;95833.97;5019575;28;20195;-82
2021/07/08 05:48:04;;;;;;;10.15;9.25;;;;;;;20.04;100.00;95834.28;5017759;28;20203;-83
2021/07/08 05:50:31;;;;;;;9.68;8.88;;;;;;;20.06;100.00;95850.53;5018506;28;20222;-84
2021/07/08 05:52:57;;;;;;;10.77;9.20;;;;;;;20.10;100.00;95856.09;5019528;28;20206;-83
2021/07/08 05:55:24;;;;;;;10.50;9.60;;;;;;;20.11;100.00;95855.88;5020426;28;20211;-85
2021/07/08 05:57:52;;;;;;;9.93;9.13;;;;;;;20.14;100.00;95846.78;5017776;28;20231;-82
2021/07/08 06:00:19;;;;;;;10.68;9.77;;;;;;;20.15;99.92;95843.13;5039720;28;20253;-82
2021/07/08 06:02:46;;;;;;;10.82;9.82;;;;;;;20.14;100.00;95844.94;5036747;28;20727;-84
2021/07/08 06:05:13;;;;;;;11.10;10.10;;;;;;;20.17;100.00;95846.31;5040347;28;20293;-83
2021/07/08 06:07:40;;;;;;;12.15;11.05;;;;;;;20.13;100.00;95864.28;5040593;28;20205;-84
2021/07/08 06:10:09;;;;;;;12.15;11.15;;;;;;;20.06;100.00;95868.03;5041040;28;20214;-84
2021/07/08 06:12:36;;;;;;;10.98;10.00;;;;;;;20.10;100.00;95861.31;5039598;28;20266;-82
2021/07/08 06:15:05;;;;;;;10.50;9.60;;;;;;;20.12;100.00;95860.06;5039805;28;20205;-83
2021/07/08 06:17:32;;;;;;;11.55;10.43;;;;;;;20.18;100.00;95859.16;5040007;28;20206;-82
2021/07/08 06:19:58;;;;;;;11.60;10.60;;;;;;;20.10;100.00;95846.44;5040804;28;20222;-85
2021/07/08 06:22:25;;;;;;;12.02;10.93;;;;;;;20.15;100.00;95845.75;5039045;28;20201;-83
2021/07/08 06:24:51;;;;;;;11.80;10.70;;;;;;;20.16;100.00;95844.72;5040115;28;20199;-87
2021/07/08 06:27:18;;;;;;;11.63;10.68;;;;;;;20.16;100.00;95849.97;5039948;28;20210;-81
2021/07/08 06:29:44;;;;;;;13.40;12.20;;;;;;;20.15;100.00;95862.22;5038975;28;20222;-81
2021/07/08 06:32:17;;;;;;;14.20;13.00;;;;;;;20.20;100.00;95870.19;5038997;28;20209;-83
2021/07/08 06:34:44;;;;;;;14.35;13.07;;;;;;;20.23;100.00;95872.31;5036162;28;20205;-84
2021/07/08 06:37:10;;;;;;;14.60;13.05;;;;;;;20.27;100.00;95856.97;5036454;28;20206;-83
2021/07/08 06:39:37;;;;;;;15.32;13.93;;;;;;;20.26;100.00;95856.19;5034935;28;20229;-83
2021/07/08 06:42:04;;;;;;;15.43;13.90;;;;;;;20.22;100.00;95849.81;5036369;28;20198;-83
2021/07/08 06:44:30;;;;;;;16.75;15.15;;;;;;;20.19;100.00;95841.66;5036098;28;20676;-84
2021/07/08 06:46:57;;;;;;;16.02;14.43;;;;;;;20.24;100.00;95850.38;5035903;28;20206;-86
2021/07/08 06:49:25;;;;;;;16.35;14.95;;;;;;;20.27;100.00;95852.53;5037445;28;20266;-83
2021/07/08 06:51:52;;;;;;;17.00;15.25;;;;;;;20.25;100.00;95846.75;5038394;28;20746;-85
2021/07/08 06:54:18;;;;;;;17.95;16.00;;;;;;;20.25;100.00;95841.50;5038263;28;20692;-83
2021/07/08 06:56:45;;;;;;;17.70;16.10;;;;;;;20.27;100.00;95838.66;5034908;28;20229;-85
2021/07/08 06:59:11;;;;;;;18.52;16.73;;;;;;;20.37;100.00;95841.53;5029397;28;20245;-86
2021/07/08 07:01:38;;;;;;;18.98;16.95;;;;;;;20.34;100.00;95841.97;5033546;28;20210;-83
2021/07/08 07:04:04;;;;;;;19.13;17.20;;;;;;;20.35;100.00;95848.78;5037926;28;20206;-84
2021/07/08 07:06:32;;;;;;;18.10;16.48;;;;;;;20.34;100.00;95849.81;5038291;28;20201;-83
2021/07/08 07:08:59;;;;;;;18.35;16.55;;;;;;;20.41;99.49;95860.16;5038704;28;20205;-83
2021/07/08 07:11:25;;;;;;;19.05;17.27;;;;;;;20.42;99.37;95862.53;5034054;28;20221;-87
2021/07/08 07:13:52;;;;;;;18.85;17.15;;;;;;;20.39;99.34;95867.47;5037195;28;20507;-85
2021/07/08 07:16:19;;;;;;;18.85;17.00;;;;;;;20.41;99.72;95866.19;5033706;28;20202;-85
2021/07/08 07:18:45;;;;;;;19.88;18.08;;;;;;;20.41;100.00;95865.38;5030172;28;20652;-86
2021/07/08 07:21:12;;;;;;;20.65;18.75;;;;;;;20.32;100.00;95851.84;5033523;28;20306;-86
2021/07/08 07:23:42;;;;;;;19.88;17.95;;;;;;;20.28;100.00;95864.59;5037138;28;20229;-86
2021/07/08 07:26:08;;;;;;;18.50;16.80;;;;;;;20.32;100.00;95870.16;5036848;28;20218;-87
2021/07/08 07:28:36;;;;;;;20.30;18.38;;;;;;;20.34;100.00;95871.53;5036832;28;20198;-86
2021/07/08 07:31:03;;;;;;;21.08;18.85;;;;;;;20.38;99.60;95871.91;5036225;28;20246;-85
2021/07/08 07:33:30;;;;;;;22.50;19.42;;;;;;;20.41;99.61;95871.41;5037178;28;20581;-87
2021/07/08 07:35:56;;;;;;;19.38;17.42;;;;;;;20.40;99.31;95872.44;5037875;28;20202;-85
2021/07/08 07:38:23;;;;;;;20.38;18.33;;;;;;;20.44;99.56;95884.03;5037672;28;20249;-86
2021/07/08 07:40:51;;;;;;;21.05;18.95;;;;;;;20.45;99.36;95888.25;5037466;28;20229;-83
2021/07/08 07:43:17;;;;;;;20.77;18.67;;;;;;;20.37;100.00;95895.66;5035507;28;20891;-84
2021/07/08 07:45:44;;;;;;;20.38;18.40;;;;;;;20.38;100.00;95892.03;5035685;28;20289;-87
2021/07/08 07:48:11;;;;;;;20.15;18.20;;;;;;;20.40;100.00;95892.59;5036190;28;20210;-85
2021/07/08 07:50:38;;;;;;;20.10;18.10;;;;;;;20.40;100.00;95887.38;5036643;28;20218;-85
2021/07/08 07:53:05;;;;;;;20.48;18.35;;;;;;;20.44;99.95;95891.88;5035822;28;20194;-82
2021/07/08 07:55:31;;;;;;;21.60;19.58;;;;;;;20.45;99.60;95892.69;5035899;28;20210;-84
2021/07/08 07:58:01;;;;;;;20.80;18.90;;;;;;;20.46;99.33;95904.72;5036618;28;20583;-85
2021/07/08 08:00:29;;;;;;;21.63;19.70;;;;;;;20.48;99.45;95892.22;5035545;28;20232;-85
2021/07/08 08:02:57;;;;;;;20.23;18.30;;;;;;;20.53;99.04;95890.50;5033126;28;20819;-86
2021/07/08 08:05:36;;;;;;;21.60;19.48;;;;;;;20.51;100.00;95894.38;5035509;28;20203;-85
2021/07/08 08:10:50;;;;;;;20.73;18.92;;;;;;;20.47;100.00;95891.44;5038856;28;20221;-83
2021/07/08 08:13:18;;;;;;;20.88;19.00;;;;;;;20.50;100.00;95880.50;5041145;28;20349;-85
2021/07/08 08:15:45;;;;;;;21.73;19.50;;;;;;;20.52;100.00;95875.03;5040168;28;20302;-84
2021/07/08 08:18:11;;;;;;;19.83;18.13;;;;;;;20.55;100.00;95867.53;5042185;28;20216;-84
2021/07/08 08:20:38;;;;;;;20.75;18.83;;;;;;;20.59;100.00;95873.09;5041298;28;20214;-83
2021/07/08 08:23:05;;;;;;;20.98;19.10;;;;;;;20.65;99.59;95891.28;5040578;28;20229;-85
2021/07/08 08:25:31;;;;;;;19.42;17.73;;;;;;;20.67;99.49;95910.16;5035593;28;20205;-83
2021/07/08 08:27:59;;;;;;;20.95;18.90;;;;;;;20.65;99.70;95906.97;5041096;28;20217;-87
2021/07/08 08:30:27;;;;;;;21.08;19.02;;;;;;;20.64;99.35;95902.75;5040909;28;20241;-84
2021/07/08 08:32:53;;;;;;;20.88;18.90;;;;;;;20.64;98.99;95913.22;5039083;28;20209;-83
2021/07/08 08:35:20;;;;;;;21.80;19.80;;;;;;;20.62;99.33;95899.56;5039463;28;20205;-83
2021/07/08 08:37:48;;;;;;;22.27;20.20;;;;;;;20.58;100.00;95905.53;5039673;28;20661;-83
2021/07/08 08:40:15;;;;;;;22.05;20.10;;;;;;;20.60;100.00;95903.44;5039850;28;20230;-85
2021/07/08 08:42:42;;;;;;;21.83;19.77;;;;;;;20.62;100.00;95914.47;5039367;28;20202;-84
2021/07/08 08:45:12;;;;;;;21.10;19.13;;;;;;;20.63;100.00;95923.91;5040600;28;20206;-86
2021/07/08 08:48:02;;;;;;;21.45;19.45;;;;;;;20.66;100.00;95921.66;5039681;28;20206;-85
2021/07/08 08:50:31;;;;;;;22.63;20.52;;;;;;;20.61;100.00;95918.13;5041271;28;20214;-86
2021/07/08 08:52:58;;;;;;;23.13;20.90;;;;;;;20.56;100.00;95923.28;5040524;28;20205;-86
2021/07/08 08:55:25;;;;;;;22.45;20.50;;;;;;;20.56;100.00;95921.44;5042803;28;20304;-84
2021/07/08 08:57:51;;;;;;;23.17;21.20;;;;;;;20.56;100.00;95923.28;5039503;28;20236;-82
2021/07/08 09:00:36;;;;;;;22.15;20.35;;;;;;;20.63;100.00;95922.09;5039879;28;20234;-82
2021/07/08 09:03:06;;;;;;;22.65;20.75;;;;;;;20.72;100.00;95922.56;5041095;28;20264;-86
2021/07/08 09:05:33;;;;;;;21.75;20.00;;;;;;;20.77;99.69;95914.81;5040900;28;20202;-87
2021/07/08 09:08:10;;;;;;;21.08;19.45;;;;;;;20.85;98.51;95908.41;5040360;28;20241;-86
2021/07/08 09:10:37;;;;;;;20.90;19.20;;;;;;;20.93;98.54;95908.03;5040811;28;20221;-85
2021/07/08 09:13:05;;;;;;;22.48;20.33;;;;;;;20.94;98.21;95923.50;5039779;28;20210;-86
2021/07/08 09:15:32;;;;;;;22.50;20.48;;;;;;;20.94;99.58;95923.50;5039842;28;20206;-86
2021/07/08 09:17:58;;;;;;;21.38;19.48;;;;;;;20.98;98.71;95921.19;5037812;28;20204;-85
2021/07/08 09:20:27;;;;;;;20.52;18.83;;;;;;;21.01;98.36;95924.16;5039937;28;20227;-83
2021/07/08 09:23:09;;;;;;;20.55;18.95;;;;;;;21.03;98.57;95918.69;5039506;28;20530;-87
2021/07/08 09:25:36;;;;;;;20.33;18.63;;;;;;;21.09;97.82;95923.00;5040225;28;20253;-86
2021/07/08 09:28:15;;;;;;;20.42;18.77;;;;;;;21.11;98.39;95928.00;5039975;28;20209;-83
2021/07/08 09:30:43;;;;;;;19.65;17.73;;;;;;;21.13;97.66;95921.50;5039646;28;20226;-83
2021/07/08 09:33:35;;;;;;;19.73;18.10;;;;;;;21.16;97.87;95900.09;5038945;28;20202;-85
2021/07/08 09:36:12;;;;;;;18.17;16.63;;;;;;;21.16;97.15;95891.44;5038462;28;20573;-87
2021/07/08 09:38:41;;;;;;;17.98;16.58;;;;;;;21.24;97.12;95904.97;5040479;28;20202;-84
2021/07/08 09:41:11;;;;;;;18.05;16.52;;;;;;;21.28;96.38;95894.81;5039911;28;20225;-85
2021/07/08 09:43:39;;;;;;;18.60;17.10;;;;;;;21.26;97.40;95878.53;5039780;28;20206;-86
2021/07/08 09:46:06;;;;;;;17.52;16.20;;;;;;;21.24;98.92;95880.59;5040521;28;20205;-87
2021/07/08 09:48:33;;;;;;;17.58;16.17;;;;;;;21.26;97.49;95883.78;5039026;28;20611;-84
2021/07/08 09:51:00;;;;;;;18.83;17.02;;;;;;;21.27;97.97;95867.81;5039850;28;20222;-85
2021/07/08 09:53:29;;;;;;;18.55;17.00;;;;;;;21.26;97.11;95861.00;5040264;28;20225;-85
2021/07/08 09:56:03;;;;;;;18.35;17.02;;;;;;;21.28;96.70;95858.94;5036918;28;20221;-86
2021/07/08 09:58:31;;;;;;;19.02;17.42;;;;;;;21.29;97.74;95857.91;5040752;28;20237;-86
2021/07/08 10:01:03;;;;;;;18.60;17.20;;;;;;;21.42;97.43;95869.09;5040339;28;20221;-85
2021/07/08 10:03:29;;;;;;;18.70;17.30;;;;;;;21.51;95.81;95875.56;5040206;28;20199;-85
2021/07/08 10:05:57;;;;;;;18.77;17.17;;;;;;;21.50;95.96;95877.38;5040358;28;20649;-86
2021/07/08 10:08:24;;;;;;;17.98;16.48;;;;;;;21.46;95.64;95876.25;5039999;28;20637;-85
2021/07/08 10:10:51;;;;;;;17.02;15.82;;;;;;;21.49;94.96;95882.84;5039455;28;20249;-86
2021/07/08 10:13:18;;;;;;;17.30;15.98;;;;;;;21.43;95.88;95874.09;5040000;28;20213;-86
2021/07/08 10:15:47;;;;;;;18.10;16.70;;;;;;;21.43;94.58;95871.50;5040470;28;20198;-83
2021/07/08 10:18:14;;;;;;;16.85;15.43;;;;;;;21.47;94.86;95879.69;5039762;28;20206;-88
2021/07/08 10:20:43;;;;;;;16.02;14.68;;;;;;;21.52;95.80;95885.81;5039789;28;20226;-86
2021/07/08 10:23:10;;;;;;;16.63;15.30;;;;;;;21.61;94.78;95880.94;5039638;28;20202;-85
2021/07/08 10:25:37;;;;;;;16.40;15.15;;;;;;;21.65;94.41;95889.94;5039998;28;20213;-86
2021/07/08 10:28:06;;;;;;;17.17;15.77;;;;;;;21.62;94.34;95891.19;5038488;28;20812;-86
2021/07/08 10:30:34;;;;;;;16.27;15.07;;;;;;;21.56;94.33;95889.50;5039334;28;20300;-86
2021/07/08 10:33:01;;;;;;;17.38;16.02;;;;;;;21.47;94.84;95896.19;5038322;28;20224;-85
2021/07/08 10:35:42;;;;;;;17.10;15.70;;;;;;;21.50;94.53;95884.44;5039593;28;20206;-86
2021/07/08 10:38:31;;;;;;;16.88;15.38;;;;;;;21.59;94.49;95869.91;5039499;28;20860;-86
2021/07/08 10:41:00;;;;;;;17.48;16.02;;;;;;;21.58;96.31;95878.78;5039529;28;20232;-85
2021/07/08 10:43:36;;;;;;;16.05;14.85;;;;;;;21.62;95.86;95898.25;5039746;28;20220;-86
2021/07/08 10:46:04;;;;;;;17.05;15.52;;;;;;;21.64;95.09;95897.00;5039435;28;20208;-86
2021/07/08 10:48:40;;;;;;;15.88;14.60;;;;;;;21.63;94.39;95889.38;5040037;28;20222;-86
2021/07/08 10:51:08;;;;;;;15.45;14.25;;;;;;;21.69;92.25;95889.22;5039663;28;20249;-85
2021/07/08 10:53:37;;;;;;;16.58;15.30;;;;;;;21.76;91.84;95893.50;5040149;28;20201;-87
2021/07/08 10:56:07;;;;;;;15.77;14.45;;;;;;;21.82;91.59;95893.34;5038300;28;20229;-87
2021/07/08 10:58:45;;;;;;;15.95;14.55;;;;;;;21.87;90.57;95887.38;5032343;28;20197;-86
2021/07/08 11:01:32;;;;;;;15.65;14.45;;;;;;;21.94;91.16;95893.25;5034746;28;20697;-87
2021/07/08 11:04:00;;;;;;;16.10;14.80;;;;;;;21.84;90.77;95886.03;5037391;28;20198;-84
2021/07/08 11:06:29;;;;;;;15.45;14.13;;;;;;;21.82;92.43;95897.78;5037232;28;20233;-86
2021/07/08 11:09:02;;;;;;;15.45;14.10;;;;;;;21.74;91.70;95898.19;5037985;28;20282;-86
2021/07/08 11:12:04;;;;;;;15.25;14.15;;;;;;;21.75;92.10;95912.88;5039197;28;20230;-85
2021/07/08 11:14:39;;;;;;;15.32;13.93;;;;;;;21.78;92.05;95917.63;5034389;28;20198;-85
2021/07/08 11:17:19;;;;;;;14.48;13.20;;;;;;;21.76;93.10;95914.47;5037943;28;20204;-84
2021/07/08 11:19:50;;;;;;;14.40;13.13;;;;;;;21.75;93.42;95908.41;5037197;28;20226;-87
2021/07/08 11:22:33;;;;;;;15.43;13.93;;;;;;;21.75;93.55;95916.28;5035682;28;20205;-84
2021/07/08 11:25:01;;;;;;;14.57;13.38;;;;;;;21.79;93.45;95916.59;5036540;28;20206;-87
2021/07/08 11:27:37;;;;;;;15.27;14.07;;;;;;;21.83;93.26;95920.34;5038273;28;20261;-86
2021/07/08 11:30:25;;;;;;;15.65;14.35;;;;;;;21.76;95.25;95930.19;5037619;28;20253;-87